Wetterdaten: Jahr 2020
Datum Temp. A. Feuchte A. Luftdruck Regen Wind Richtung Sonnenschein UV Solar Windben
01.01.2020 3,5 C 71 % 1031,4 hPa 0,0 l/m 6,1 km/h O 5,42 h 0,8 UV-I 130 W/m 11,8 km/h
02.01.2020 1,7 C 87 % 1025,0 hPa 0,0 l/m 3,9 km/h O 1,83 h 0,6 UV-I 77 W/m 6,9 km/h
03.01.2020 7,1 C 88 % 1019,5 hPa 5,2 l/m 9,3 km/h S-SW 0,00 h 0,0 UV-I 25 W/m 18,6 km/h
04.01.2020 4,8 C 92 % 1028,0 hPa 3,2 l/m 10,9 km/h W-SW 0,00 h 0,0 UV-I 15 W/m 20,2 km/h
05.01.2020 5,6 C 86 % 1033,6 hPa 0,0 l/m 6,2 km/h SW 0,00 h 0,0 UV-I 21 W/m 11,4 km/h
06.01.2020 4,7 C 78 % 1024,0 hPa 0,0 l/m 4,8 km/h O 0,83 h 0,6 UV-I 51 W/m 9,3 km/h
07.01.2020 6,6 C 82 % 1025,2 hPa 0,2 l/m 11,7 km/h SW 0,33 h 0,7 UV-I 61 W/m 19,8 km/h
08.01.2020 10,4 C 88 % 1022,7 hPa 0,0 l/m 6,1 km/h S-SW 0,00 h 0,0 UV-I 21 W/m 11,4 km/h
09.01.2020 11,9 C 85 % 1011,9 hPa 2,8 l/m 8,2 km/h S-SW 0,00 h 0,0 UV-I 26 W/m 17,0 km/h
10.01.2020 6,8 C 89 % 1020,7 hPa 4,6 l/m 9,1 km/h SW 0,00 h 0,5 UV-I 30 W/m 17,0 km/h
11.01.2020 4,6 C 81 % 1029,3 hPa 0,0 l/m 5,3 km/h SW 1,33 h 0,7 UV-I 86 W/m 11,8 km/h
12.01.2020 6,8 C 81 % 1021,0 hPa 0,0 l/m 13,1 km/h S 0,25 h 0,6 UV-I 55 W/m 23,0 km/h
13.01.2020 7,4 C 79 % 1015,3 hPa 0,0 l/m 9,1 km/h S-SW 2,00 h 0,9 UV-I 104 W/m 17,8 km/h
14.01.2020 11,0 C 73 % 1008,0 hPa 0,0 l/m 10,4 km/h S-SW 0,00 h 0,5 UV-I 37 W/m 20,6 km/h
15.01.2020 12,2 C 69 % 1014,4 hPa 0,2 l/m 13,3 km/h S-SW 1,33 h 0,7 UV-I 89 W/m 26,2 km/h
16.01.2020 8,9 C 79 % 1024,5 hPa 0,0 l/m 9,9 km/h O-SO 5,33 h 0,9 UV-I 144 W/m 19,8 km/h
17.01.2020 8,8 C 78 % 1016,0 hPa 0,0 l/m 10,7 km/h SW 3,00 h 0,9 UV-I 113 W/m 21,0 km/h
18.01.2020 4,2 C 86 % 1024,8 hPa 4,0 l/m 8,5 km/h SW 0,00 h 0,6 UV-I 46 W/m 14,2 km/h
19.01.2020 3,4 C 93 % 1039,3 hPa 1,2 l/m 3,6 km/h W-SW 0,00 h 0,6 UV-I 38 W/m 7,3 km/h
20.01.2020 2,4 C 94 % 1046,4 hPa 0,0 l/m 3,0 km/h SW 0,92 h 0,5 UV-I 58 W/m 5,3 km/h
21.01.2020 1,2 C 82 % 1040,3 hPa 0,0 l/m 2,5 km/h O 6,25 h 1,0 UV-I 163 W/m 6,5 km/h
22.01.2020 2,0 C 94 % 1036,0 hPa 0,0 l/m 5,4 km/h SW 0,00 h 0,0 UV-I 31 W/m 8,9 km/h
23.01.2020 1,8 C 88 % 1030,2 hPa 0,0 l/m 4,3 km/h O 0,92 h 0,6 UV-I 80 W/m 7,3 km/h
24.01.2020 -0,0 C 91 % 1023,7 hPa 0,0 l/m 6,3 km/h O-SO 0,00 h 0,6 UV-I 43 W/m 11,3 km/h
25.01.2020 0,1 C 92 % 1021,8 hPa 0,0 l/m 4,6 km/h SW 0,00 h 0,5 UV-I 44 W/m 10,2 km/h
26.01.2020 3,9 C 87 % 1015,9 hPa 0,0 l/m 8,0 km/h O 3,17 h 0,8 UV-I 111 W/m 17,4 km/h
27.01.2020 7,0 C 83 % 1004,5 hPa 1,0 l/m 7,1 km/h S-SO 0,00 h 0,6 UV-I 39 W/m 13,4 km/h
28.01.2020 4,5 C 82 % 995,1 hPa 2,8 l/m 15,1 km/h SW 0,42 h 0,7 UV-I 55 W/m 26,2 km/h
29.01.2020 4,3 C 86 % 1007,8 hPa 0,4 l/m 14,0 km/h W-SW 0,17 h 0,7 UV-I 52 W/m 25,4 km/h
30.01.2020 8,8 C 80 % 1005,1 hPa 0,8 l/m 13,0 km/h SW 0,42 h 0,8 UV-I 87 W/m 27,4 km/h
31.01.2020 12,1 C 79 % 1007,5 hPa 0,8 l/m 12,0 km/h SW 2,33 h 1,0 UV-I 107 W/m 22,6 km/h
01.02.2020 9,7 C 89 % 1004,1 hPa 11,2 l/m 12,8 km/h SW 0,00 h 0,5 UV-I 33 W/m 26,3 km/h
02.02.2020 8,6 C 87 % 1007,0 hPa 4,0 l/m 12,6 km/h W-SW 0,00 h 0,5 UV-I 42 W/m 24,7 km/h
03.02.2020 9,0 C 83 % 1008,8 hPa 5,4 l/m 11,4 km/h W-SW 0,00 h 0,7 UV-I 68 W/m 20,7 km/h
04.02.2020 4,0 C 90 % 1015,7 hPa 7,0 l/m 12,2 km/h W-SW 0,17 h 0,7 UV-I 67 W/m 20,6 km/h
05.02.2020 3,4 C 81 % 1034,8 hPa 0,0 l/m 7,6 km/h W-SW 4,58 h 1,1 UV-I 180 W/m 13,8 km/h
06.02.2020 4,8 C 81 % 1031,1 hPa 0,0 l/m 7,4 km/h W-SW 0,00 h 0,6 UV-I 45 W/m 13,4 km/h
07.02.2020 4,7 C 74 % 1026,3 hPa 0,0 l/m 7,2 km/h O 6,75 h 1,2 UV-I 202 W/m 13,4 km/h
08.02.2020 6,2 C 75 % 1020,5 hPa 0,0 l/m 8,9 km/h O 1,50 h 0,7 UV-I 91 W/m 17,0 km/h
09.02.2020 11,3 C 68 % 999,8 hPa 0,0 l/m 19,7 km/h S 1,92 h 0,9 UV-I 110 W/m 40,3 km/h
10.02.2020 7,3 C 76 % 992,8 hPa 15,8 l/m 20,9 km/h SW 1,42 h 0,9 UV-I 94 W/m 38,3 km/h
11.02.2020 4,0 C 75 % 1003,4 hPa 2,2 l/m 20,9 km/h W-SW 4,00 h 1,2 UV-I 169 W/m 37,9 km/h
12.02.2020 4,3 C 74 % 1013,0 hPa 0,0 l/m 15,2 km/h W-SW 0,75 h 0,9 UV-I 94 W/m 27,5 km/h
13.02.2020 4,3 C 85 % 1003,1 hPa 2,0 l/m 10,5 km/h O-SO 0,17 h 0,6 UV-I 34 W/m 20,2 km/h
14.02.2020 6,3 C 84 % 1020,6 hPa 0,0 l/m 8,8 km/h W-SW 0,33 h 1,0 UV-I 98 W/m 16,6 km/h
15.02.2020 9,1 C 71 % 1015,9 hPa 0,0 l/m 7,2 km/h SO 5,17 h 1,5 UV-I 213 W/m 14,2 km/h
16.02.2020 12,3 C 75 % 1004,2 hPa 4,0 l/m 15,9 km/h S-SW 0,50 h 1,0 UV-I 82 W/m 35,5 km/h
17.02.2020 8,0 C 72 % 1013,1 hPa 3,0 l/m 13,8 km/h SW 2,50 h 1,2 UV-I 169 W/m 26,6 km/h
18.02.2020 6,4 C 74 % 1019,0 hPa 4,8 l/m 15,0 km/h SW 2,75 h 1,3 UV-I 171 W/m 29,7 km/h
19.02.2020 5,1 C 76 % 1018,1 hPa 3,8 l/m 12,7 km/h SW 0,17 h 0,8 UV-I 80 W/m 23,9 km/h
20.02.2020 8,2 C 79 % 1011,6 hPa 3,2 l/m 12,6 km/h S-SW 0,58 h 1,0 UV-I 107 W/m 26,6 km/h
21.02.2020 6,9 C 71 % 1023,8 hPa 2,0 l/m 15,7 km/h SW 2,67 h 1,3 UV-I 171 W/m 28,3 km/h
22.02.2020 8,9 C 71 % 1018,1 hPa 1,6 l/m 19,3 km/h SW 1,33 h 0,8 UV-I 89 W/m 34,7 km/h
23.02.2020 7,8 C 85 % 1013,7 hPa 22,8 l/m 19,4 km/h W-SW 0,00 h 0,0 UV-I 29 W/m 31,5 km/h
24.02.2020 7,5 C 86 % 1009,8 hPa 2,6 l/m 16,3 km/h W-SW 0,00 h 0,7 UV-I 71 W/m 28,7 km/h
25.02.2020 5,8 C 81 % 996,8 hPa 1,2 l/m 12,5 km/h W-SW 2,42 h 1,1 UV-I 148 W/m 24,2 km/h
26.02.2020 2,8 C 90 % 999,3 hPa 2,4 l/m 13,6 km/h W-SW 0,58 h 0,6 UV-I 52 W/m 23,0 km/h
27.02.2020 2,4 C 86 % 1001,3 hPa 3,6 l/m 4,7 km/h SW 0,08 h 1,0 UV-I 109 W/m 8,9 km/h
28.02.2020 3,8 C 83 % 1011,4 hPa 3,6 l/m 12,3 km/h W-SW 2,25 h 1,3 UV-I 166 W/m 22,6 km/h
29.02.2020 8,9 C 70 % 993,9 hPa 3,2 l/m 13,4 km/h S 3,33 h 1,2 UV-I 173 W/m 30,3 km/h
01.03.2020 7,6 C 69 % 993,0 hPa 5,8 l/m 11,1 km/h S-SW 1,50 h 1,2 UV-I 158 W/m 23,4 km/h
02.03.2020 7,6 C 75 % 991,5 hPa 2,6 l/m 6,3 km/h O 5,75 h 1,6 UV-I 224 W/m 13,8 km/h
03.03.2020 5,3 C 75 % 1003,8 hPa 2,0 l/m 8,3 km/h SW 3,17 h 1,3 UV-I 194 W/m 15,8 km/h
04.03.2020 5,3 C 78 % 1009,7 hPa 0,2 l/m 6,5 km/h S 1,83 h 1,1 UV-I 115 W/m 15,4 km/h
05.03.2020 6,0 C 84 % 993,7 hPa 1,4 l/m 11,6 km/h O 0,83 h 1,1 UV-I 117 W/m 22,2 km/h
06.03.2020 4,2 C 93 % 997,1 hPa 4,6 l/m 12,5 km/h W-SW 0,00 h 0,5 UV-I 41 W/m 20,2 km/h
07.03.2020 5,6 C 74 % 1017,6 hPa 0,4 l/m 8,5 km/h W 1,17 h 1,1 UV-I 126 W/m 14,2 km/h
08.03.2020 10,1 C 70 % 1011,0 hPa 0,0 l/m 10,1 km/h S 3,08 h 1,7 UV-I 177 W/m 23,0 km/h
09.03.2020 7,4 C 77 % 1012,7 hPa 1,6 l/m 7,0 km/h W-SW 2,42 h 1,3 UV-I 146 W/m 12,9 km/h
10.03.2020 9,9 C 91 % 1003,7 hPa 8,8 l/m 15,4 km/h SW 0,00 h 0,7 UV-I 51 W/m 31,0 km/h
11.03.2020 10,6 C 88 % 1009,8 hPa 8,2 l/m 8,8 km/h SW 0,75 h 1,2 UV-I 122 W/m 18,6 km/h
12.03.2020 8,1 C 71 % 1008,8 hPa 3,2 l/m 15,3 km/h W-SW 6,33 h 2,0 UV-I 287 W/m 26,6 km/h
13.03.2020 6,3 C 78 % 1016,7 hPa 1,4 l/m 12,0 km/h W-SW 0,92 h 1,0 UV-I 113 W/m 21,0 km/h
14.03.2020 7,3 C 70 % 1021,0 hPa 0,0 l/m 7,6 km/h O 9,32 h 2,2 UV-I 368 W/m 16,5 km/h
15.03.2020 9,9 C 60 % 1014,5 hPa 0,0 l/m 10,4 km/h O-SO 8,67 h 2,0 UV-I 307 W/m 19,0 km/h
16.03.2020 11,1 C 67 % 1020,7 hPa 0,0 l/m 4,3 km/h O-SO 9,25 h 2,3 UV-I 319 W/m 7,3 km/h
17.03.2020 11,3 C 57 % 1028,7 hPa 0,6 l/m 6,4 km/h SW 9,08 h 2,3 UV-I 359 W/m 12,1 km/h
18.03.2020 12,6 C 58 % 1025,5 hPa 0,0 l/m 7,7 km/h SW 9,83 h 2,3 UV-I 343 W/m 13,4 km/h
19.03.2020 11,6 C 74 % 1024,4 hPa 0,0 l/m 5,2 km/h NO 3,83 h 2,3 UV-I 257 W/m 10,2 km/h
20.03.2020 7,2 C 79 % 1026,0 hPa 0,4 l/m 6,1 km/h NO 0,00 h 1,2 UV-I 91 W/m 13,0 km/h
21.03.2020 4,3 C 61 % 1029,2 hPa 0,0 l/m 11,3 km/h NO 7,42 h 2,1 UV-I 314 W/m 21,8 km/h
22.03.2020 3,8 C 49 % 1033,8 hPa 0,0 l/m 12,5 km/h O-NO 10,25 h 2,3 UV-I 385 W/m 24,2 km/h
23.03.2020 3,7 C 40 % 1035,1 hPa 0,0 l/m 7,0 km/h O 10,50 h 2,3 UV-I 382 W/m 16,2 km/h
24.03.2020 4,3 C 40 % 1032,6 hPa 0,0 l/m 9,5 km/h O 10,58 h 2,4 UV-I 384 W/m 15,8 km/h
25.03.2020 5,3 C 38 % 1027,3 hPa 0,0 l/m 7,3 km/h O-NO 10,08 h 2,4 UV-I 387 W/m 12,6 km/h
26.03.2020 6,7 C 48 % 1023,0 hPa 0,0 l/m 8,0 km/h O-NO 10,42 h 2,4 UV-I 375 W/m 15,0 km/h
27.03.2020 11,0 C 50 % 1019,9 hPa 0,0 l/m 3,9 km/h NO 9,92 h 2,3 UV-I 352 W/m 8,1 km/h
28.03.2020 8,0 C 62 % 1021,9 hPa 0,0 l/m 5,9 km/h W-NW 10,50 h 2,4 UV-I 371 W/m 13,8 km/h
29.03.2020 3,1 C 69 % 1028,3 hPa 0,0 l/m 5,7 km/h W 0,17 h 0,9 UV-I 92 W/m 16,6 km/h
30.03.2020 2,6 C 75 % 1027,7 hPa 0,0 l/m 5,5 km/h W-SW 2,92 h 1,7 UV-I 184 W/m 8,9 km/h
31.03.2020 4,1 C 59 % 1028,9 hPa 0,0 l/m 2,3 km/h NO 8,58 h 2,5 UV-I 362 W/m 5,3 km/h
01.04.2020 5,2 C 58 % 1020,0 hPa 0,0 l/m 4,0 km/h O 10,75 h 2,6 UV-I 392 W/m 7,3 km/h
02.04.2020 6,7 C 64 % 1011,9 hPa 0,0 l/m 11,2 km/h W-SW 3,67 h 2,1 UV-I 255 W/m 20,6 km/h
03.04.2020 7,6 C 71 % 1016,3 hPa 0,0 l/m 8,7 km/h W-SW 2,17 h 1,7 UV-I 168 W/m 14,6 km/h
04.04.2020 8,6 C 55 % 1025,0 hPa 0,0 l/m 4,5 km/h O 11,08 h 2,8 UV-I 404 W/m 10,1 km/h
05.04.2020 13,2 C 46 % 1022,4 hPa 0,0 l/m 9,9 km/h O 11,08 h 2,8 UV-I 404 W/m 20,2 km/h
06.04.2020 17,7 C 31 % 1020,7 hPa 0,0 l/m 8,0 km/h O 11,00 h 3,1 UV-I 408 W/m 15,0 km/h
07.04.2020 14,8 C 62 % 1029,8 hPa 0,0 l/m 1,7 km/h NO 7,08 h 2,7 UV-I 333 W/m 3,3 km/h
08.04.2020 18,0 C 47 % 1023,4 hPa 0,0 l/m 1,8 km/h O-SO 11,17 h 3,0 UV-I 401 W/m 4,5 km/h
09.04.2020 15,0 C 55 % 1024,5 hPa 0,0 l/m 3,9 km/h NO 11,00 h 3,1 UV-I 399 W/m 7,3 km/h
10.04.2020 11,4 C 49 % 1025,9 hPa 0,0 l/m 3,2 km/h W-NW 10,42 h 3,1 UV-I 394 W/m 6,1 km/h
11.04.2020 13,8 C 42 % 1022,9 hPa 0,0 l/m 9,3 km/h O 11,17 h 3,1 UV-I 414 W/m 17,0 km/h
12.04.2020 16,8 C 42 % 1013,5 hPa 0,0 l/m 5,7 km/h O 10,08 h 2,9 UV-I 371 W/m 9,8 km/h
13.04.2020 7,2 C 52 % 1019,9 hPa 0,0 l/m 11,0 km/h W-NW 5,17 h 2,3 UV-I 301 W/m 21,0 km/h
14.04.2020 6,8 C 60 % 1025,4 hPa 0,0 l/m 6,6 km/h W 2,50 h 2,0 UV-I 233 W/m 11,4 km/h
15.04.2020 10,8 C 55 % 1022,7 hPa 0,0 l/m 3,8 km/h SW 10,08 h 3,2 UV-I 411 W/m 7,3 km/h
16.04.2020 15,1 C 47 % 1016,0 hPa 0,0 l/m 4,3 km/h O-SO 11,08 h 3,1 UV-I 400 W/m 8,1 km/h
17.04.2020 13,8 C 57 % 1016,1 hPa 0,0 l/m 4,3 km/h NO 11,17 h 3,1 UV-I 395 W/m 8,1 km/h
18.04.2020 16,6 C 66 % 1014,5 hPa 0,4 l/m 4,3 km/h O-NO 7,50 h 3,0 UV-I 325 W/m 10,6 km/h
19.04.2020 12,6 C 49 % 1019,4 hPa 0,0 l/m 10,8 km/h O-NO 12,00 h 3,0 UV-I 425 W/m 19,4 km/h
20.04.2020 12,5 C 41 % 1020,8 hPa 0,0 l/m 10,8 km/h NO 11,83 h 3,0 UV-I 437 W/m 21,8 km/h
21.04.2020 14,2 C 41 % 1020,0 hPa 0,0 l/m 9,9 km/h O-NO 11,83 h 3,1 UV-I 437 W/m 21,8 km/h
22.04.2020 15,4 C 39 % 1021,1 hPa 0,0 l/m 9,4 km/h O-NO 11,83 h 3,2 UV-I 438 W/m 17,4 km/h
23.04.2020 16,1 C 42 % 1018,4 hPa 0,0 l/m 6,9 km/h O-NO 11,67 h 3,3 UV-I 440 W/m 13,0 km/h
24.04.2020 14,5 C 47 % 1010,6 hPa 0,0 l/m 7,1 km/h O-SO 11,00 h 3,1 UV-I 402 W/m 17,8 km/h
25.04.2020 11,5 C 56 % 1012,3 hPa 0,0 l/m 4,0 km/h W 7,42 h 2,9 UV-I 365 W/m 7,7 km/h
26.04.2020 13,5 C 51 % 1010,3 hPa 0,0 l/m 3,1 km/h W-SW 12,00 h 3,4 UV-I 439 W/m 6,1 km/h
27.04.2020 16,4 C 48 % 1006,6 hPa 0,0 l/m 3,7 km/h W-SW 11,75 h 3,3 UV-I 427 W/m 6,9 km/h
28.04.2020 13,6 C 79 % 1003,3 hPa 3,2 l/m 4,3 km/h O-SO 3,58 h 1,6 UV-I 172 W/m 9,3 km/h
29.04.2020 12,4 C 85 % 1004,7 hPa 4,8 l/m 6,8 km/h SW 1,42 h 1,6 UV-I 171 W/m 14,2 km/h
30.04.2020 11,1 C 80 % 1001,0 hPa 7,8 l/m 9,0 km/h W-SW 4,17 h 3,0 UV-I 312 W/m 17,0 km/h
01.05.2020 10,3 C 76 % 1000,8 hPa 1,4 l/m 7,7 km/h S-SW 3,92 h 2,5 UV-I 270 W/m 14,2 km/h
02.05.2020 8,8 C 86 % 1009,0 hPa 10,0 l/m 7,6 km/h SW 2,75 h 1,8 UV-I 187 W/m 13,8 km/h
03.05.2020 12,0 C 71 % 1017,0 hPa 0,0 l/m 6,5 km/h W-SW 5,42 h 2,3 UV-I 283 W/m 11,8 km/h
04.05.2020 10,6 C 71 % 1018,1 hPa 0,6 l/m 3,3 km/h W-NW 2,58 h 1,9 UV-I 191 W/m 7,7 km/h
05.05.2020 9,9 C 56 % 1021,2 hPa 0,0 l/m 3,6 km/h W-NW 10,58 h 3,2 UV-I 460 W/m 6,1 km/h
06.05.2020 12,5 C 51 % 1024,3 hPa 0,0 l/m 4,2 km/h W 12,08 h 3,5 UV-I 451 W/m 7,7 km/h
07.05.2020 13,9 C 44 % 1022,4 hPa 0,0 l/m 5,1 km/h W-SW 12,08 h 3,7 UV-I 466 W/m 8,5 km/h
08.05.2020 16,1 C 45 % 1017,3 hPa 0,0 l/m 4,2 km/h O-NO 10,50 h 3,5 UV-I 415 W/m 8,9 km/h
09.05.2020 18,2 C 47 % 1011,5 hPa 0,0 l/m 5,1 km/h O-NO 11,00 h 3,0 UV-I 362 W/m 9,8 km/h
10.05.2020 14,4 C 71 % 1005,4 hPa 0,0 l/m 6,6 km/h O 1,17 h 1,5 UV-I 150 W/m 13,8 km/h
11.05.2020 8,2 C 49 % 1011,9 hPa 0,0 l/m 7,0 km/h W-NW 1,75 h 1,9 UV-I 202 W/m 15,0 km/h
12.05.2020 8,0 C 58 % 1016,7 hPa 0,0 l/m 6,1 km/h SW 3,17 h 2,0 UV-I 245 W/m 11,4 km/h
13.05.2020 8,6 C 67 % 1012,8 hPa 0,6 l/m 5,2 km/h W-NW 5,42 h 2,9 UV-I 286 W/m 13,0 km/h
14.05.2020 9,3 C 56 % 1018,8 hPa 0,4 l/m 4,3 km/h W 8,58 h 3,1 UV-I 395 W/m 8,5 km/h
15.05.2020 10,5 C 55 % 1021,2 hPa 0,0 l/m 5,2 km/h W 7,67 h 3,1 UV-I 386 W/m 10,1 km/h
16.05.2020 13,3 C 53 % 1021,0 hPa 0,0 l/m 4,6 km/h W-SW 9,08 h 2,9 UV-I 359 W/m 8,9 km/h
17.05.2020 13,6 C 58 % 1022,9 hPa 0,0 l/m 6,3 km/h W-SW 8,00 h 3,3 UV-I 366 W/m 12,2 km/h
18.05.2020 18,3 C 51 % 1021,2 hPa 0,0 l/m 6,2 km/h W-SW 11,50 h 3,6 UV-I 429 W/m 10,9 km/h
19.05.2020 17,8 C 59 % 1020,6 hPa 0,0 l/m 3,8 km/h SW 4,58 h 3,0 UV-I 306 W/m 8,5 km/h
20.05.2020 16,5 C 71 % 1022,1 hPa 0,0 l/m 3,3 km/h NO 0,58 h 1,7 UV-I 168 W/m 5,7 km/h
21.05.2020 19,9 C 53 % 1020,8 hPa 0,0 l/m 5,2 km/h O-NO 12,83 h 3,9 UV-I 455 W/m 10,9 km/h
22.05.2020 19,9 C 70 % 1017,4 hPa 7,4 l/m 6,5 km/h O 1,25 h 2,0 UV-I 182 W/m 13,0 km/h
23.05.2020 15,0 C 58 % 1021,7 hPa 0,2 l/m 9,4 km/h W-SW 4,75 h 2,3 UV-I 264 W/m 17,0 km/h
24.05.2020 12,5 C 82 % 1027,3 hPa 2,4 l/m 10,5 km/h W-SW 0,67 h 1,4 UV-I 130 W/m 19,0 km/h
25.05.2020 14,8 C 67 % 1031,8 hPa 0,0 l/m 8,9 km/h W 5,83 h 2,9 UV-I 337 W/m 19,0 km/h
26.05.2020 15,8 C 61 % 1034,6 hPa 0,0 l/m 4,9 km/h O-NO 8,92 h 3,2 UV-I 361 W/m 8,9 km/h
27.05.2020 17,6 C 59 % 1031,7 hPa 0,0 l/m 6,4 km/h O-NO 9,67 h 3,6 UV-I 405 W/m 14,2 km/h
28.05.2020 15,8 C 51 % 1030,8 hPa 0,0 l/m 5,0 km/h W-NW 13,00 h 3,9 UV-I 475 W/m 12,6 km/h
29.05.2020 16,6 C 52 % 1026,4 hPa 0,0 l/m 6,1 km/h NO 12,83 h 4,0 UV-I 471 W/m 10,1 km/h
Min-Datum 30.03.20 07.05.20 06.03.20 60 Tage 02.01.20 - - - - 02.01.20
Min-Zeit 06:20 17:45 04:00 - 02:50 - - - - 02:55
Minimum -3,3 C 14 % 985,2 hPa - 0,5 km/h - - - - 0,5 km/h
Max-Datum 22.05.20 23.01.20 20.01.20 23.02.20 23.02.20 - 28.05.20 19.05.20 11.05.20 11.02.20
Max-Zeit 16:45 03:00 10:55 03:55 17:05 - 20:20 13:20 13:25 18:45
Maximum 25,7 C 97 % 1048,1 hPa 22,8 l/m 42,0 km/h
W-SW
- 12,92 h 7,4 UV-I 1143 W/m 77,7 km/h
W-SW
Durchschnitt 9,2 C 69 % 1017,6 hPa #217,0 l/m 8,4 km/h W-SW #722:04 h 1,8 UV-I 220 W/m 16,1 km/h

Durchschnitt Minimum Temp.5,1 C
Durchschnitt Maximum Temp.12,8 C

Jahr Standard-Abweichung:   + 9,16 K
Jahr Normal Wert:    0,00 C
Eistage (Tmax < 0C) :0
Frosttage (Tmin < 0C) :12
Kalte Tage (Tmax < 10C) :53
Sommertage (Tmax >= 25C) :2
Heie Tage (Tmax >= 30C) :0

Regen Tage
> 0,0 l/m60
> 2,0 l/m37
> 20,0 l/m1
Jahr Standard-Abweichung:   + 217,0 l/m
Jahr Normal Wert:    0,0 l/m

VerteilungWindrichtung
Windstille2,1 %
N-NO1,5 %
NO6,5 %
O-NO8,1 %
O8,7 %
O-SO6,2 %
SO4,1 %
S-SO3,7 %
S4,9 %
S-SW7,8 %
SW14,5 %
W-SW15,1 %
W9,8 %
W-NW4,6 %
NW2,6 %
N-NW1,2 %
N0,9 %